createdAt,value
2022-09-10T00:01:25.033Z,17.77
2022-09-10T00:03:53.407Z,17.53
2022-09-10T00:06:20.484Z,17.60
2022-09-10T00:08:47.483Z,17.60
2022-09-10T00:11:17.331Z,17.81
2022-09-10T00:13:43.814Z,17.75
2022-09-10T00:16:13.267Z,17.80
2022-09-10T00:18:40.419Z,17.69
2022-09-10T00:21:10.811Z,17.60
2022-09-10T00:23:37.296Z,17.57
2022-09-10T00:26:15.081Z,17.57
2022-09-10T00:28:42.893Z,17.57
2022-09-10T00:31:11.615Z,17.67
2022-09-10T00:33:38.163Z,17.69
2022-09-10T00:36:14.125Z,17.68
2022-09-10T00:38:40.580Z,17.70
2022-09-10T00:41:08.180Z,17.63
2022-09-10T00:43:48.807Z,17.65
2022-09-10T00:46:28.522Z,17.54
2022-09-10T00:48:58.408Z,17.58
2022-09-10T00:51:26.692Z,17.63
2022-09-10T00:53:54.256Z,17.59
2022-09-10T00:56:21.430Z,17.65
2022-09-10T00:58:49.190Z,17.65
2022-09-10T01:01:16.321Z,17.68
2022-09-10T01:03:44.545Z,17.64
2022-09-10T01:06:11.215Z,17.58
2022-09-10T01:08:37.979Z,17.56
2022-09-10T01:11:34.590Z,17.53
2022-09-10T01:14:23.399Z,17.58
2022-09-10T01:17:03.431Z,17.61
2022-09-10T01:19:48.149Z,17.67
2022-09-10T01:22:32.547Z,17.73
2022-09-10T01:25:25.078Z,17.70
2022-09-10T01:27:57.129Z,17.53
2022-09-10T01:30:29.800Z,17.51
2022-09-10T01:33:20.372Z,17.45
2022-09-10T01:35:53.315Z,17.28
2022-09-10T01:38:46.515Z,16.95
2022-09-10T01:41:13.759Z,16.86
2022-09-10T01:43:41.942Z,16.67
2022-09-10T01:46:54.508Z,16.73
2022-09-10T01:50:00.292Z,16.73
2022-09-10T01:52:51.571Z,16.84
2022-09-10T01:55:41.895Z,16.84
2022-09-10T01:58:28.880Z,16.92
2022-09-10T02:01:09.567Z,16.92
2022-09-10T02:03:39.354Z,16.97
2022-09-10T02:06:09.451Z,16.96
2022-09-10T02:08:40.704Z,16.92
2022-09-10T02:11:11.765Z,16.88
2022-09-10T02:13:38.751Z,17.02
2022-09-10T02:16:11.103Z,16.96
2022-09-10T02:18:39.780Z,17.00
2022-09-10T02:21:07.143Z,17.05
2022-09-10T02:23:42.573Z,17.02
2022-09-10T02:26:09.502Z,17.01
2022-09-10T02:28:36.817Z,17.09
2022-09-10T02:31:03.306Z,17.10
2022-09-10T02:33:31.070Z,16.96
2022-09-10T02:35:57.914Z,17.05
2022-09-10T02:38:24.423Z,17.00
2022-09-10T02:40:50.831Z,16.91
2022-09-10T02:43:17.760Z,16.86
2022-09-10T02:45:44.749Z,16.89
2022-09-10T02:48:11.289Z,16.77
2022-09-10T02:50:37.839Z,16.87
2022-09-10T02:53:04.524Z,17.02
2022-09-10T02:55:31.901Z,16.99
2022-09-10T02:57:58.457Z,16.99
2022-09-10T03:00:24.970Z,16.95
2022-09-10T03:02:51.407Z,16.89
2022-09-10T03:05:17.920Z,17.00
2022-09-10T03:07:44.825Z,16.92
2022-09-10T03:10:11.242Z,17.04
2022-09-10T03:12:39.156Z,17.07
2022-09-10T03:15:06.901Z,17.11
2022-09-10T03:17:33.346Z,17.03
2022-09-10T03:19:59.908Z,17.05
2022-09-10T03:22:26.342Z,17.05
2022-09-10T03:24:52.805Z,16.98
2022-09-10T03:27:20.516Z,16.92
2022-09-10T03:29:47.033Z,16.97
2022-09-10T03:32:13.460Z,17.00
2022-09-10T03:34:39.966Z,17.08
2022-09-10T03:37:06.398Z,17.10
2022-09-10T03:39:33.073Z,17.23
2022-09-10T03:41:59.591Z,17.38
2022-09-10T03:44:26.020Z,17.51
2022-09-10T03:46:52.631Z,17.45
2022-09-10T03:49:19.711Z,17.19
2022-09-10T03:51:48.170Z,17.20
2022-09-10T03:54:15.094Z,17.12
2022-09-10T03:56:41.609Z,17.16
2022-09-10T03:59:08.088Z,17.09
2022-09-10T04:01:34.580Z,17.00
2022-09-10T04:04:02.785Z,17.07
2022-09-10T04:06:32.240Z,17.01
2022-09-10T04:09:00.348Z,16.86
2022-09-10T04:11:27.844Z,16.92
2022-09-10T04:13:55.650Z,16.93
2022-09-10T04:16:23.387Z,16.89
2022-09-10T04:18:51.115Z,16.79
2022-09-10T04:21:17.852Z,16.68
2022-09-10T04:23:45.615Z,16.75
2022-09-10T04:26:14.638Z,17.03
2022-09-10T04:28:41.672Z,16.87
2022-09-10T04:31:08.198Z,16.83
2022-09-10T04:33:34.924Z,16.87
2022-09-10T04:36:01.677Z,16.81
2022-09-10T04:38:30.492Z,16.74
2022-09-10T04:40:58.382Z,16.79
2022-09-10T04:43:25.661Z,16.76
2022-09-10T04:45:52.989Z,16.67
2022-09-10T04:48:19.434Z,16.65
2022-09-10T04:51:05.398Z,16.66
2022-09-10T04:53:34.397Z,16.68
2022-09-10T04:56:01.074Z,16.76
2022-09-10T04:58:27.506Z,16.72
2022-09-10T05:00:55.906Z,16.85
2022-09-10T05:03:23.093Z,16.79
2022-09-10T05:05:49.537Z,16.74
2022-09-10T05:08:16.011Z,16.69
2022-09-10T05:10:42.530Z,16.82
2022-09-10T05:13:09.173Z,16.80
2022-09-10T05:15:35.822Z,16.78
2022-09-10T05:18:02.329Z,16.74
2022-09-10T05:20:28.852Z,16.80
2022-09-10T05:22:55.310Z,16.73
2022-09-10T05:25:22.338Z,16.85
2022-09-10T05:27:49.442Z,16.93
2022-09-10T05:30:17.179Z,16.98
2022-09-10T05:32:43.629Z,17.03
2022-09-10T05:35:10.338Z,17.05
2022-09-10T05:37:36.821Z,17.07
2022-09-10T05:40:06.397Z,17.12
2022-09-10T05:42:32.919Z,17.11
2022-09-10T05:44:59.375Z,17.16
2022-09-10T05:47:25.785Z,17.05
2022-09-10T05:49:52.218Z,17.17
2022-09-10T05:52:21.711Z,17.21
2022-09-10T05:54:48.118Z,17.27
2022-09-10T05:57:18.085Z,17.36
2022-09-10T05:59:46.272Z,17.46
2022-09-10T06:02:21.774Z,17.36
2022-09-10T06:04:50.292Z,17.44
2022-09-10T06:07:16.706Z,17.54
2022-09-10T06:09:43.497Z,17.46
2022-09-10T06:12:09.993Z,17.42
2022-09-10T06:14:36.438Z,17.50
2022-09-10T06:17:02.946Z,17.47
2022-09-10T06:19:29.660Z,17.53
2022-09-10T06:21:56.156Z,17.61
2022-09-10T06:24:24.422Z,17.74
2022-09-10T06:26:50.898Z,17.72
2022-09-10T06:29:19.196Z,17.77
2022-09-10T06:31:47.102Z,17.92
2022-09-10T06:34:14.090Z,18.00
2022-09-10T06:36:41.457Z,18.15
2022-09-10T06:39:07.958Z,18.31
2022-09-10T06:41:34.608Z,18.43
2022-09-10T06:44:01.161Z,18.61
2022-09-10T06:49:14.782Z,18.75
2022-09-10T06:51:41.291Z,18.81
2022-09-10T06:54:07.855Z,18.69
2022-09-10T06:56:34.641Z,18.53
2022-09-10T06:59:02.707Z,18.31
2022-09-10T07:01:29.934Z,18.24
2022-09-10T07:03:58.133Z,18.33
2022-09-10T07:06:25.945Z,18.44
2022-09-10T07:08:57.011Z,18.52
2022-09-10T07:11:24.671Z,18.62
2022-09-10T07:13:53.200Z,18.76
2022-09-10T07:16:24.934Z,18.56
2022-09-10T07:18:54.501Z,18.55
2022-09-10T07:21:22.748Z,18.54
2022-09-10T07:23:51.864Z,18.43
2022-09-10T07:26:19.692Z,18.40
2022-09-10T07:28:46.513Z,18.43
2022-09-10T07:31:14.077Z,18.28
2022-09-10T07:33:40.597Z,18.38
2022-09-10T07:36:07.162Z,18.37
2022-09-10T07:38:33.888Z,18.40
2022-09-10T07:41:00.698Z,18.36
2022-09-10T07:43:27.196Z,18.30
2022-09-10T07:45:53.682Z,18.35
2022-09-10T07:48:20.165Z,18.47
2022-09-10T07:50:46.585Z,18.50
2022-09-10T07:53:13.542Z,18.56
2022-09-10T07:55:40.404Z,18.54
2022-09-10T07:58:06.821Z,18.52
2022-09-10T08:00:33.354Z,18.47
2022-09-10T08:02:59.841Z,18.48
2022-09-10T08:05:27.585Z,18.51
2022-09-10T08:07:54.311Z,18.36
2022-09-10T08:10:21.618Z,18.16
2022-09-10T08:12:48.046Z,18.09
2022-09-10T08:15:14.774Z,18.19
2022-09-10T08:17:41.233Z,18.05
2022-09-10T08:20:09.980Z,17.82
2022-09-10T08:22:36.450Z,17.51
2022-09-10T08:25:03.217Z,17.28
2022-09-10T08:27:29.705Z,17.14
2022-09-10T08:29:56.366Z,17.09
2022-09-10T08:32:23.618Z,17.17
2022-09-10T08:34:50.048Z,17.19
2022-09-10T08:37:16.654Z,17.33
2022-09-10T08:39:43.227Z,17.32
2022-09-10T08:42:24.637Z,17.37
2022-09-10T08:44:55.884Z,17.39
2022-09-10T08:47:26.481Z,17.47
2022-09-10T08:50:23.828Z,17.65
2022-09-10T08:52:57.441Z,17.63
2022-09-10T08:55:29.848Z,17.61
2022-09-10T08:58:02.445Z,17.57
2022-09-10T09:00:33.321Z,17.55
2022-09-10T09:03:12.686Z,17.67
2022-09-10T09:05:49.018Z,17.79
2022-09-10T09:08:19.812Z,17.81
2022-09-10T09:10:59.491Z,17.99
2022-09-10T09:13:48.976Z,18.01
2022-09-10T09:16:21.458Z,18.31
2022-09-10T09:19:02.080Z,18.45
2022-09-10T09:21:41.630Z,18.56
2022-09-10T09:24:22.303Z,18.70
2022-09-10T09:26:49.756Z,18.79
2022-09-10T09:29:24.106Z,18.92
2022-09-10T09:31:57.611Z,19.05
2022-09-10T09:34:50.529Z,19.06
2022-09-10T09:37:21.439Z,19.04
2022-09-10T09:40:07.063Z,19.17
2022-09-10T09:42:49.266Z,18.93
2022-09-10T09:45:23.474Z,18.87
2022-09-10T09:47:50.894Z,18.89
2022-09-10T09:50:20.962Z,18.90
2022-09-10T09:52:47.690Z,19.15
2022-09-10T09:55:28.632Z,19.33
2022-09-10T09:58:26.771Z,19.35
2022-09-10T10:01:10.485Z,19.53
2022-09-10T10:03:54.735Z,19.47
2022-09-10T10:06:53.083Z,19.30
2022-09-10T10:09:27.442Z,19.01
2022-09-10T10:12:04.674Z,18.71
2022-09-10T10:14:31.067Z,18.65
2022-09-10T10:17:01.020Z,18.67
2022-09-10T10:19:36.700Z,18.77
2022-09-10T10:22:18.294Z,18.96
2022-09-10T10:24:47.113Z,19.36
2022-09-10T10:27:30.164Z,19.54
2022-09-10T10:30:21.630Z,19.63
2022-09-10T10:33:00.234Z,20.25
2022-09-10T10:35:27.241Z,20.60
2022-09-10T10:38:13.631Z,20.68
2022-09-10T10:40:53.575Z,20.46
2022-09-10T10:43:45.599Z,20.33
2022-09-10T10:46:20.908Z,20.56
2022-09-10T10:49:05.297Z,21.03
2022-09-10T10:51:37.438Z,21.72
2022-09-10T10:54:29.242Z,23.88
2022-09-10T10:57:16.923Z,24.43
2022-09-10T10:59:50.403Z,24.49
2022-09-10T11:03:01.563Z,25.17
2022-09-10T11:05:38.586Z,24.95
2022-09-10T11:08:15.105Z,28.21
2022-09-10T11:10:56.162Z,27.34
2022-09-10T11:13:37.558Z,27.90
2022-09-10T11:16:16.791Z,27.29
2022-09-10T11:18:51.964Z,27.75
2022-09-10T11:21:38.188Z,25.76
2022-09-10T11:24:13.838Z,24.22
2022-09-10T11:26:59.981Z,23.50
2022-09-10T11:29:38.251Z,23.50
2022-09-10T11:32:14.167Z,23.55
2022-09-10T11:35:04.116Z,23.97
2022-09-10T11:38:01.248Z,24.10
2022-09-10T11:40:53.397Z,26.77
2022-09-10T11:43:37.326Z,26.60
2022-09-10T11:46:11.599Z,26.15
2022-09-10T11:48:53.348Z,26.54
2022-09-10T11:51:26.297Z,27.30
2022-09-10T11:53:54.863Z,28.01
2022-09-10T11:56:38.396Z,29.21
2022-09-10T11:59:37.360Z,27.59
2022-09-10T12:02:22.364Z,27.22
2022-09-10T12:05:23.687Z,25.12
2022-09-10T12:08:23.494Z,23.77
2022-09-10T12:10:59.173Z,22.82
2022-09-10T12:13:25.724Z,21.95
2022-09-10T12:16:09.137Z,21.28
2022-09-10T12:18:42.943Z,21.17
2022-09-10T12:21:23.340Z,21.23
2022-09-10T12:26:22.201Z,21.75
2022-09-10T12:28:49.385Z,22.02
2022-09-10T12:31:18.096Z,22.54
2022-09-10T12:33:44.450Z,22.66
2022-09-10T12:36:34.534Z,22.63
2022-09-10T12:39:22.519Z,23.29
2022-09-10T12:41:49.753Z,22.93
2022-09-10T12:44:26.993Z,22.51
2022-09-10T12:47:11.987Z,21.79
2022-09-10T12:49:51.640Z,21.57
2022-09-10T12:52:24.262Z,21.78
2022-09-10T12:54:57.895Z,21.79
2022-09-10T12:57:29.939Z,21.70
2022-09-10T13:00:46.638Z,20.91
2022-09-10T13:03:19.770Z,20.59
2022-09-10T13:05:48.896Z,20.41
2022-09-10T13:08:15.261Z,19.99
2022-09-10T13:10:49.979Z,19.91
2022-09-10T13:13:49.841Z,20.16
2022-09-10T13:16:38.206Z,20.16
2022-09-10T13:19:13.486Z,20.12
2022-09-10T13:21:42.864Z,20.22
2022-09-10T13:24:34.615Z,20.18
2022-09-10T13:27:19.920Z,19.99
2022-09-10T13:29:48.242Z,19.84
2022-09-10T13:32:43.435Z,19.73
2022-09-10T13:35:30.234Z,19.62
2022-09-10T13:38:18.493Z,19.67
2022-09-10T13:40:57.214Z,19.69
2022-09-10T13:43:57.554Z,19.80
2022-09-10T13:46:41.623Z,19.85
2022-09-10T13:49:22.874Z,19.94
2022-09-10T13:51:53.046Z,19.92
2022-09-10T13:54:23.563Z,19.94
2022-09-10T13:56:50.630Z,19.98
2022-09-10T13:59:28.158Z,20.12
2022-09-10T14:01:56.133Z,20.14
2022-09-10T14:04:35.289Z,20.21
2022-09-10T14:07:13.090Z,20.32
2022-09-10T14:10:01.412Z,20.36
2022-09-10T14:12:33.126Z,20.56
2022-09-10T14:15:03.313Z,20.70
2022-09-10T14:17:43.098Z,20.80
2022-09-10T14:20:35.133Z,20.98
2022-09-10T14:23:07.969Z,21.12
2022-09-10T14:25:37.631Z,20.75
2022-09-10T14:28:15.923Z,20.81
2022-09-10T14:30:48.616Z,21.00
2022-09-10T14:33:27.669Z,20.72
2022-09-10T14:35:54.770Z,20.74
2022-09-10T14:38:25.009Z,20.84
2022-09-10T14:40:58.376Z,20.79
2022-09-10T14:43:33.995Z,20.77
2022-09-10T14:46:02.145Z,21.14
2022-09-10T14:49:04.527Z,21.33
2022-09-10T14:51:30.968Z,21.57
2022-09-10T14:53:58.566Z,21.43
2022-09-10T14:56:33.389Z,21.30
2022-09-10T14:59:01.039Z,21.11
2022-09-10T15:01:28.117Z,20.94
2022-09-10T15:03:54.599Z,20.55
2022-09-10T15:06:26.022Z,20.42
2022-09-10T15:08:56.016Z,20.28
2022-09-10T15:11:25.659Z,20.20
2022-09-10T15:13:52.657Z,20.27
2022-09-10T15:16:19.143Z,20.18
2022-09-10T15:18:45.580Z,20.12
2022-09-10T15:21:15.099Z,19.92
2022-09-10T15:23:42.195Z,19.69
2022-09-10T15:26:16.109Z,19.73
2022-09-10T15:28:42.540Z,19.69
2022-09-10T15:31:10.416Z,19.63
2022-09-10T15:33:37.175Z,19.64
2022-09-10T15:36:04.038Z,19.60
2022-09-10T15:38:31.418Z,19.64
2022-09-10T15:41:12.857Z,19.72
2022-09-10T15:43:42.972Z,19.79
2022-09-10T15:46:11.172Z,19.87
2022-09-10T15:48:38.634Z,19.70
2022-09-10T15:51:10.915Z,19.60
2022-09-10T15:53:39.662Z,19.51
2022-09-10T15:56:08.289Z,19.53
2022-09-10T15:58:35.821Z,19.50
2022-09-10T16:01:13.842Z,19.49
2022-09-10T16:03:51.901Z,19.51
2022-09-10T16:06:19.735Z,19.51
2022-09-10T16:08:58.072Z,19.58
2022-09-10T16:11:25.596Z,19.54
2022-09-10T16:13:52.315Z,19.42
2022-09-10T16:16:20.871Z,19.40
2022-09-10T16:18:51.309Z,19.34
2022-09-10T16:21:22.324Z,19.26
2022-09-10T16:23:50.902Z,19.12
2022-09-10T16:26:20.330Z,18.99
2022-09-10T16:28:51.204Z,18.95
2022-09-10T16:31:26.131Z,18.92
2022-09-10T16:33:54.999Z,18.95
2022-09-10T16:36:23.491Z,19.00
2022-09-10T16:38:55.527Z,18.91
2022-09-10T16:41:24.036Z,18.92
2022-09-10T16:43:50.849Z,19.00
2022-09-10T16:46:18.401Z,18.97
2022-09-10T16:48:45.750Z,18.94
2022-09-10T16:51:15.616Z,19.01
2022-09-10T16:53:44.321Z,19.08
2022-09-10T16:56:15.961Z,19.13
2022-09-10T16:58:46.900Z,19.00
2022-09-10T17:01:14.169Z,19.01
2022-09-10T17:03:42.268Z,19.05
2022-09-10T17:06:25.916Z,19.02
2022-09-10T17:08:57.889Z,19.09
2022-09-10T17:11:26.368Z,19.01
2022-09-10T17:13:54.048Z,18.98
2022-09-10T17:16:53.195Z,19.05
2022-09-10T17:19:23.452Z,19.12
2022-09-10T17:21:52.953Z,19.14
2022-09-10T17:24:22.623Z,19.18
2022-09-10T17:26:49.936Z,19.14
2022-09-10T17:29:19.136Z,19.14
2022-09-10T17:31:47.001Z,19.14
2022-09-10T17:34:14.443Z,19.11
2022-09-10T17:36:44.662Z,19.15
2022-09-10T17:39:11.658Z,19.14
2022-09-10T17:41:39.611Z,19.15
2022-09-10T17:44:06.843Z,19.14
2022-09-10T17:46:35.055Z,19.13
2022-09-10T17:49:02.042Z,19.11
2022-09-10T17:51:31.568Z,19.08
2022-09-10T17:53:58.481Z,19.00
2022-09-10T17:56:26.468Z,18.93
2022-09-10T17:59:01.648Z,18.92
2022-09-10T18:01:33.709Z,18.92
2022-09-10T18:04:00.288Z,18.89
2022-09-10T18:06:28.840Z,18.88
2022-09-10T18:08:58.902Z,18.66
2022-09-10T18:11:28.228Z,18.50
2022-09-10T18:13:57.135Z,18.46
2022-09-10T18:16:26.693Z,18.39
2022-09-10T18:18:59.373Z,18.37
2022-09-10T18:21:31.299Z,18.38
2022-09-10T18:24:07.352Z,18.41
2022-09-10T18:26:37.157Z,18.39
2022-09-10T18:29:10.394Z,18.34
2022-09-10T18:31:45.745Z,18.34
2022-09-10T18:34:17.535Z,18.38
2022-09-10T18:36:47.735Z,18.29
2022-09-10T18:39:14.740Z,18.24
2022-09-10T18:41:42.511Z,18.24
2022-09-10T18:44:21.791Z,18.29
2022-09-10T18:46:49.801Z,18.24
2022-09-10T18:49:21.214Z,18.16
2022-09-10T18:51:48.873Z,18.16
2022-09-10T18:54:17.060Z,18.05
2022-09-10T18:56:44.981Z,18.04
2022-09-10T18:59:15.025Z,18.07
2022-09-10T19:01:46.091Z,18.09
2022-09-10T19:04:15.575Z,18.17
2022-09-10T19:06:44.754Z,18.17
2022-09-10T19:09:14.723Z,18.17
2022-09-10T19:11:43.731Z,18.19
2022-09-10T19:14:21.993Z,18.31
2022-09-10T19:16:51.539Z,18.27
2022-09-10T19:19:20.419Z,18.29
2022-09-10T19:21:48.991Z,18.27
2022-09-10T19:24:16.728Z,18.32
2022-09-10T19:26:43.674Z,18.35
2022-09-10T19:29:11.860Z,18.50
2022-09-10T19:31:40.751Z,18.45
2022-09-10T19:34:08.451Z,18.50
2022-09-10T19:36:35.852Z,18.52
2022-09-10T19:39:06.317Z,18.53
2022-09-10T19:41:35.314Z,18.57
2022-09-10T19:44:02.845Z,18.59
2022-09-10T19:46:31.025Z,18.44
2022-09-10T19:48:59.789Z,18.53
2022-09-10T19:51:28.612Z,18.58
2022-09-10T19:53:56.233Z,18.60
2022-09-10T19:56:25.809Z,18.54
2022-09-10T19:58:55.579Z,18.54
2022-09-10T20:01:33.015Z,18.47
2022-09-10T20:04:01.679Z,18.46
2022-09-10T20:06:29.884Z,18.29
2022-09-10T20:08:56.773Z,18.33
2022-09-10T20:11:25.896Z,18.31
2022-09-10T20:14:13.404Z,18.34
2022-09-10T20:16:43.250Z,18.31
2022-09-10T20:19:12.085Z,18.34
2022-09-10T20:21:39.208Z,18.22
2022-09-10T20:24:07.559Z,18.04
2022-09-10T20:26:37.437Z,18.00
2022-09-10T20:29:07.364Z,17.94
2022-09-10T20:31:36.336Z,17.87
2022-09-10T20:34:05.988Z,17.74
2022-09-10T20:36:34.860Z,17.89
2022-09-10T20:39:02.258Z,18.02
2022-09-10T20:41:32.034Z,18.06
2022-09-10T20:44:00.341Z,17.97
2022-09-10T20:46:31.281Z,18.00
2022-09-10T20:49:04.951Z,17.88
2022-09-10T20:51:36.388Z,17.81
2022-09-10T20:54:04.199Z,17.80
2022-09-10T20:56:30.954Z,17.78
2022-09-10T20:58:58.002Z,17.68
2022-09-10T21:01:26.565Z,17.66
2022-09-10T21:03:54.621Z,17.66
2022-09-10T21:06:24.527Z,17.56
2022-09-10T21:08:51.317Z,17.60
2022-09-10T21:11:20.065Z,17.60
2022-09-10T21:13:51.965Z,17.50
2022-09-10T21:16:29.545Z,17.47
2022-09-10T21:19:13.783Z,17.44
2022-09-10T21:21:41.417Z,17.56
2022-09-10T21:24:13.510Z,17.63
2022-09-10T21:26:41.824Z,17.65
2022-09-10T21:29:11.429Z,17.72
2022-09-10T21:31:38.681Z,17.70
2022-09-10T21:34:07.973Z,17.62
2022-09-10T21:36:37.128Z,17.51
2022-09-10T21:39:06.708Z,17.54
2022-09-10T21:41:35.948Z,17.52
2022-09-10T21:44:05.295Z,17.57
2022-09-10T21:46:32.364Z,17.54
2022-09-10T21:48:59.490Z,17.61
2022-09-10T21:51:26.501Z,17.52
2022-09-10T21:53:59.240Z,17.52
2022-09-10T21:56:27.777Z,17.63
2022-09-10T21:58:55.673Z,17.56
2022-09-10T22:01:28.162Z,17.57
2022-09-10T22:04:00.431Z,17.54
2022-09-10T22:06:29.503Z,17.61
2022-09-10T22:09:01.350Z,17.58
2022-09-10T22:11:34.653Z,17.63
2022-09-10T22:14:04.820Z,17.56
2022-09-10T22:16:32.801Z,17.59
2022-09-10T22:19:02.444Z,17.56
2022-09-10T22:21:29.953Z,17.52
2022-09-10T22:23:56.436Z,17.60
2022-09-10T22:26:26.045Z,17.65
2022-09-10T22:28:54.376Z,17.50
2022-09-10T22:31:23.723Z,17.50
2022-09-10T22:34:01.400Z,17.44
2022-09-10T22:36:31.464Z,17.42
2022-09-10T22:39:01.162Z,17.38
2022-09-10T22:41:29.235Z,17.33
2022-09-10T22:43:56.804Z,17.32
2022-09-10T22:46:26.736Z,17.31
2022-09-10T22:48:53.579Z,17.18
2022-09-10T22:51:25.075Z,17.15
2022-09-10T22:53:53.509Z,17.21
2022-09-10T22:56:26.082Z,17.20
2022-09-10T22:58:54.405Z,17.24
2022-09-10T23:01:23.967Z,17.25
2022-09-10T23:03:50.980Z,17.28
2022-09-10T23:06:22.536Z,17.29
2022-09-10T23:08:51.933Z,17.28
2022-09-10T23:11:24.615Z,17.28
2022-09-10T23:13:57.429Z,17.29
2022-09-10T23:16:31.090Z,17.27
2022-09-10T23:19:00.237Z,17.29
2022-09-10T23:21:28.648Z,17.22
2022-09-10T23:23:57.467Z,17.23
2022-09-10T23:26:25.046Z,17.16
2022-09-10T23:28:51.575Z,17.11
2022-09-10T23:31:20.728Z,17.19
2022-09-10T23:33:52.901Z,17.18
2022-09-10T23:36:19.414Z,17.16
2022-09-10T23:38:45.968Z,17.18
2022-09-10T23:41:12.398Z,17.26
2022-09-10T23:43:40.347Z,17.25
2022-09-10T23:46:08.917Z,17.25
2022-09-10T23:48:36.406Z,17.23
2022-09-10T23:51:03.919Z,17.14
2022-09-10T23:53:31.738Z,17.12
2022-09-10T23:55:59.175Z,17.14
2022-09-10T23:58:25.965Z,17.13
